Time;durP1;ratioP1;P1;durP2;ratioP2;P2;SDS_P1;SDS_P2;PMS_P1;PMS_P2;Temp;Humidity;BMP_temperature;BMP_pressure;BME280_temperature;BME280_humidity;BME280_pressure;Samples;Min_cycle;Max_cycle;Signal;HPM_P1;HPM_P2
2022/11/05 00:11:16;;;;;;;24.17;9.37;;;;;;;12.71;64.50;98724.63;6186430;23;20168;-89
2022/11/05 00:16:44;;;;;;;26.83;11.33;;;;;;;12.69;64.93;98734.38;6185993;23;20274;-88
2022/11/05 00:19:09;;;;;;;24.43;11.07;;;;;;;12.70;65.59;98728.19;6184818;23;20617;-88
2022/11/05 00:27:07;;;;;;;27.90;10.80;;;;;;;12.69;66.51;98726.50;6186459;23;20500;-89
2022/11/05 00:29:32;;;;;;;21.90;10.03;;;;;;;12.70;66.49;98723.78;6184646;23;20250;-88
2022/11/05 00:31:57;;;;;;;23.53;9.67;;;;;;;12.72;66.94;98727.13;6186133;23;20234;-88
2022/11/05 00:34:23;;;;;;;28.37;10.53;;;;;;;12.86;66.37;98726.22;6160478;23;20563;-89
2022/11/05 00:36:48;;;;;;;29.57;10.90;;;;;;;13.03;66.03;98719.78;6184510;23;20592;-89
2022/11/05 00:39:14;;;;;;;23.80;11.07;;;;;;;13.10;66.39;98715.81;6185693;23;20153;-88
2022/11/05 00:41:39;;;;;;;21.57;9.73;;;;;;;13.07;66.68;98716.03;6184552;23;20234;-89
2022/11/05 00:46:49;;;;;;;25.30;10.17;;;;;;;12.93;67.85;98711.69;6185982;23;20211;-88
2022/11/05 00:49:34;;;;;;;21.50;11.23;;;;;;;13.01;68.20;98709.38;6185573;23;20464;-89
2022/11/05 00:54:43;;;;;;;21.30;10.40;;;;;;;13.07;67.76;98714.25;6186089;23;20152;-89
2022/11/05 00:57:08;;;;;;;22.03;11.27;;;;;;;13.01;67.53;98719.03;6184376;23;20157;-89
2022/11/05 00:59:34;;;;;;;24.83;10.50;;;;;;;12.91;67.74;98722.31;6185532;23;20486;-88
2022/11/05 01:01:59;;;;;;;27.03;10.83;;;;;;;12.96;68.04;98719.38;6185825;23;20148;-89
2022/11/05 01:04:25;;;;;;;25.47;11.50;;;;;;;13.03;67.66;98709.25;6184154;23;20211;-89
2022/11/05 01:06:50;;;;;;;21.07;9.60;;;;;;;13.03;67.43;98714.50;6185153;23;20179;-88
2022/11/05 01:09:16;;;;;;;26.50;12.50;;;;;;;12.97;67.21;98713.13;6185472;23;20152;-89
2022/11/05 01:11:41;;;;;;;25.30;11.10;;;;;;;12.98;66.72;98719.25;6184234;23;20158;-89
2022/11/05 01:14:10;;;;;;;20.87;9.30;;;;;;;12.98;66.60;98711.34;6185749;23;20150;-88
2022/11/05 01:16:36;;;;;;;29.30;10.80;;;;;;;12.88;66.01;98712.00;6185996;23;20153;-89
2022/11/05 01:19:03;;;;;;;23.77;11.00;;;;;;;12.82;66.36;98701.91;6185358;23;20598;-89
2022/11/05 01:21:29;;;;;;;19.63;10.33;;;;;;;12.86;66.68;98702.53;6184107;23;20657;-89
2022/11/05 01:23:54;;;;;;;24.67;10.93;;;;;;;12.86;66.17;98700.75;6159406;23;20157;-88
2022/11/05 01:26:19;;;;;;;23.57;10.27;;;;;;;12.75;65.88;98697.16;6185227;23;20161;-89
2022/11/05 01:28:53;;;;;;;23.67;10.37;;;;;;;12.58;66.49;98693.03;6185183;23;20294;-89
2022/11/05 01:31:19;;;;;;;22.17;10.07;;;;;;;12.52;66.16;98693.47;6159363;23;20161;-89
2022/11/05 01:33:44;;;;;;;30.47;10.87;;;;;;;12.63;65.87;98690.94;6159254;23;20237;-89
2022/11/05 01:36:10;;;;;;;21.93;10.00;;;;;;;12.66;66.07;98703.03;6185565;23;20153;-88
2022/11/05 01:38:36;;;;;;;25.63;11.13;;;;;;;12.61;65.04;98697.25;6185586;23;20144;-89
2022/11/05 01:41:03;;;;;;;29.83;11.20;;;;;;;12.47;65.35;98703.47;6185553;23;20410;-89
2022/11/05 01:43:47;;;;;;;36.83;14.40;;;;;;;12.35;65.23;98701.63;6184009;23;20194;-89
2022/11/05 01:46:13;;;;;;;48.30;16.10;;;;;;;12.33;64.87;98703.53;6185501;23;20478;-89
2022/11/05 01:48:39;;;;;;;41.70;13.97;;;;;;;12.41;64.36;98709.13;6158993;23;20189;-89
2022/11/05 01:51:14;;;;;;;41.93;14.37;;;;;;;12.44;63.90;98702.81;6186260;23;20149;-88
2022/11/05 01:53:47;;;;;;;37.27;12.63;;;;;;;12.54;63.51;98701.25;6185875;23;20168;-89
2022/11/05 01:56:15;;;;;;;35.40;13.20;;;;;;;12.52;63.14;98696.09;6185494;23;20142;-89
2022/11/05 01:58:53;;;;;;;40.37;13.83;;;;;;;12.39;63.28;98695.25;6185168;23;20176;-89
2022/11/05 02:01:18;;;;;;;36.83;13.83;;;;;;;12.40;63.25;98693.44;6159158;23;20164;-89
2022/11/05 02:03:47;;;;;;;30.10;12.23;;;;;;;12.40;63.16;98688.16;6159090;23;20164;-88
2022/11/05 02:06:16;;;;;;;37.33;13.13;;;;;;;12.31;63.57;98689.66;6159054;23;20159;-88
2022/11/05 02:08:50;;;;;;;35.27;12.67;;;;;;;12.12;63.60;98695.28;6184995;23;20176;-88
2022/11/05 02:11:18;;;;;;;31.13;12.10;;;;;;;12.03;64.21;98698.50;6159097;23;20155;-88
2022/11/05 02:13:45;;;;;;;25.73;11.53;;;;;;;12.08;64.24;98695.59;6159046;23;20228;-89
2022/11/05 02:16:28;;;;;;;28.20;12.10;;;;;;;12.08;63.93;98693.78;6159230;23;20156;-88
2022/11/05 02:19:18;;;;;;;22.53;10.27;;;;;;;12.11;63.69;98693.59;6187153;23;20151;-89
2022/11/05 02:21:56;;;;;;;35.57;11.20;;;;;;;12.20;63.66;98695.63;6160958;23;20567;-89
2022/11/05 02:25:26;;;;;;;26.50;11.27;;;;;;;12.04;63.78;98688.84;6187038;23;20160;-88
2022/11/05 02:28:16;;;;;;;26.50;10.30;;;;;;;12.02;64.13;98680.22;6096772;23;20188;-89
2022/11/05 02:30:46;;;;;;;24.83;9.07;;;;;;;12.01;64.28;98684.63;6072356;23;20187;-89
2022/11/05 02:33:26;;;;;;;24.53;10.43;;;;;;;12.04;64.23;98680.94;6147066;23;20154;-89
2022/11/05 02:35:55;;;;;;;22.27;9.67;;;;;;;12.09;64.26;98674.47;6186947;23;20481;-89
2022/11/05 02:38:35;;;;;;;19.47;9.80;;;;;;;12.05;64.17;98673.00;6161232;23;20158;-88
2022/11/05 02:41:07;;;;;;;26.80;9.43;;;;;;;12.01;64.28;98666.25;6161454;23;20158;-89
2022/11/05 02:43:51;;;;;;;28.10;11.77;;;;;;;11.94;64.41;98672.00;6187451;23;20150;-89
2022/11/05 02:46:42;;;;;;;23.47;10.30;;;;;;;11.97;64.13;98667.41;6161468;23;20194;-88
2022/11/05 02:49:32;;;;;;;19.00;8.47;;;;;;;11.90;64.21;98663.47;6160759;23;20173;-88
2022/11/05 02:52:03;;;;;;;22.27;9.97;;;;;;;11.99;64.25;98662.03;6187447;23;20165;-89
2022/11/05 02:54:39;;;;;;;30.00;11.47;;;;;;;12.04;63.96;98662.56;6162048;23;20147;-89
2022/11/05 02:57:05;;;;;;;23.40;10.17;;;;;;;11.91;64.42;98666.94;6187056;23;20221;-89
2022/11/05 02:59:31;;;;;;;24.33;10.23;;;;;;;11.87;64.75;98665.47;6187000;23;20155;-89
2022/11/05 03:01:58;;;;;;;25.83;10.20;;;;;;;11.83;64.68;98662.19;6160725;23;20701;-89
2022/11/05 03:04:25;;;;;;;23.47;10.43;;;;;;;11.85;64.77;98662.94;6186638;23;20151;-89
2022/11/05 03:07:05;;;;;;;27.47;10.77;;;;;;;11.74;65.00;98669.84;6186526;23;20174;-89
2022/11/05 03:10:08;;;;;;;26.63;8.90;;;;;;;11.67;65.22;98666.72;6160544;23;20157;-89
2022/11/05 03:12:50;;;;;;;18.57;9.67;;;;;;;11.58;65.54;98667.31;6160431;23;20220;-89
2022/11/05 03:15:28;;;;;;;19.57;9.40;;;;;;;11.61;65.54;98662.69;6186906;23;20225;-89
2022/11/05 03:18:13;;;;;;;25.80;10.63;;;;;;;11.71;65.31;98666.44;6187162;23;20232;-88
2022/11/05 03:21:15;;;;;;;22.00;10.60;;;;;;;11.79;65.04;98660.72;6186820;23;20149;-88
2022/11/05 03:23:55;;;;;;;25.23;9.50;;;;;;;11.75;65.15;98658.38;6187143;23;20138;-89
2022/11/05 03:26:30;;;;;;;22.07;10.43;;;;;;;11.64;65.50;98662.50;6186737;23;20146;-89
2022/11/05 03:29:01;;;;;;;25.20;10.63;;;;;;;11.58;65.32;98664.69;6159826;23;20562;-89
2022/11/05 03:31:28;;;;;;;22.43;9.07;;;;;;;11.61;65.76;98665.31;6186707;23;20237;-89
2022/11/05 03:33:56;;;;;;;21.33;9.87;;;;;;;11.74;65.40;98662.78;6186392;23;20147;-89
2022/11/05 03:36:33;;;;;;;26.67;11.00;;;;;;;11.67;65.50;98659.69;6160328;23;20613;-89
2022/11/05 03:39:03;;;;;;;19.13;10.77;;;;;;;11.67;65.56;98662.31;6160310;23;20146;-89
2022/11/05 03:41:32;;;;;;;22.00;10.27;;;;;;;11.57;65.76;98658.59;6160681;23;20146;-89
2022/11/05 03:44:02;;;;;;;19.53;9.70;;;;;;;11.59;65.56;98656.72;6160275;23;20220;-89
2022/11/05 03:47:03;;;;;;;30.53;9.63;;;;;;;11.55;66.06;98650.00;6186483;23;20468;-89
2022/11/05 03:49:37;;;;;;;25.00;10.40;;;;;;;11.54;65.95;98650.91;6164930;23;20169;-89
2022/11/05 03:52:08;;;;;;;27.77;11.63;;;;;;;11.52;66.17;98655.44;6186823;23;20137;-88
2022/11/05 03:54:34;;;;;;;28.50;9.50;;;;;;;11.59;66.46;98650.63;6186225;23;20135;-89
2022/11/05 03:57:24;;;;;;;28.03;11.50;;;;;;;11.58;66.85;98646.31;6184897;23;20486;-89
2022/11/05 03:59:50;;;;;;;23.23;11.00;;;;;;;11.60;66.45;98653.16;6175425;23;20159;-88
2022/11/05 04:02:18;;;;;;;23.37;11.83;;;;;;;11.65;66.44;98652.84;6186125;23;20162;-89
2022/11/05 04:04:44;;;;;;;18.63;9.43;;;;;;;11.56;66.70;98643.78;6186380;23;20180;-89
2022/11/05 04:15:22;;;;;;;20.77;9.77;;;;;;;11.49;67.40;98647.75;6186386;23;20179;-89
2022/11/05 04:17:47;;;;;;;24.57;10.67;;;;;;;11.43;67.31;98645.50;6184682;23;20150;-88
2022/11/05 04:25:46;;;;;;;24.97;11.03;;;;;;;11.39;67.31;98654.53;6186256;23;20558;-88
2022/11/05 04:28:12;;;;;;;23.77;10.87;;;;;;;11.48;67.05;98650.44;6185694;23;20178;-89
2022/11/05 04:30:38;;;;;;;27.17;12.57;;;;;;;11.52;66.60;98652.81;6185667;23;20618;-88
2022/11/05 04:33:05;;;;;;;25.10;11.27;;;;;;;11.57;66.24;98653.34;6160091;23;20158;-88
2022/11/05 04:35:36;;;;;;;26.47;10.73;;;;;;;11.51;66.28;98653.72;6186048;23;20578;-88
2022/11/05 04:38:07;;;;;;;23.87;10.30;;;;;;;11.64;65.87;98651.16;6186060;23;20213;-89
2022/11/05 04:40:33;;;;;;;22.30;9.13;;;;;;;11.65;65.87;98647.59;6186401;23;20139;-89
2022/11/05 04:42:59;;;;;;;25.60;9.53;;;;;;;11.69;65.97;98649.09;6159616;23;20169;-89
2022/11/05 04:45:27;;;;;;;26.20;11.07;;;;;;;11.61;66.24;98654.81;6186051;23;20150;-89
2022/11/05 04:47:53;;;;;;;23.63;10.93;;;;;;;11.65;66.09;98652.84;6159591;23;20249;-89
2022/11/05 04:50:19;;;;;;;34.10;12.03;;;;;;;11.69;65.93;98663.06;6186248;23;20180;-89
2022/11/05 04:52:44;;;;;;;22.40;9.73;;;;;;;11.53;66.22;98670.22;6185606;23;20146;-89
2022/11/05 04:55:10;;;;;;;21.67;9.60;;;;;;;11.44;66.27;98672.59;6185683;23;20151;-89
2022/11/05 04:57:36;;;;;;;23.43;11.40;;;;;;;11.37;66.84;98673.94;6185900;23;20483;-89
2022/11/05 05:00:02;;;;;;;24.23;11.80;;;;;;;11.45;66.65;98682.97;6159629;23;20161;-89
2022/11/05 05:02:28;;;;;;;24.73;11.70;;;;;;;11.54;66.54;98682.41;6160448;23;20155;-89
2022/11/05 05:04:53;;;;;;;29.17;11.33;;;;;;;11.33;66.50;98683.75;6185478;23;20483;-89
2022/11/05 05:07:18;;;;;;;22.37;10.23;;;;;;;11.32;67.42;98678.63;6185658;23;20184;-89
2022/11/05 05:09:44;;;;;;;23.47;10.50;;;;;;;11.43;67.49;98684.88;6186174;23;20146;-88
2022/11/05 05:12:09;;;;;;;27.63;11.73;;;;;;;11.40;67.99;98692.09;6185763;23;20154;-88
2022/11/05 05:14:35;;;;;;;23.67;10.43;;;;;;;11.36;68.04;98688.81;6159432;23;20182;-89
2022/11/05 05:17:00;;;;;;;20.93;10.83;;;;;;;11.39;68.26;98698.28;6185438;23;20277;-89
2022/11/05 05:19:26;;;;;;;32.33;11.23;;;;;;;11.40;68.40;98695.56;6186025;23;20146;-89
2022/11/05 05:21:51;;;;;;;24.97;10.13;;;;;;;11.46;68.22;98696.94;6159344;23;20531;-89
2022/11/05 05:24:19;;;;;;;26.80;9.47;;;;;;;11.51;68.26;98702.75;6184138;23;20165;-89
2022/11/05 05:26:47;;;;;;;24.03;11.07;;;;;;;11.41;68.63;98713.00;6185636;23;20151;-89
2022/11/05 05:29:13;;;;;;;24.93;11.23;;;;;;;11.43;68.27;98703.25;6159210;23;20170;-89
2022/11/05 05:31:39;;;;;;;29.23;12.40;;;;;;;11.26;68.09;98715.72;6159708;23;20154;-89
2022/11/05 05:34:06;;;;;;;29.10;11.80;;;;;;;11.19;67.75;98723.13;6159359;23;20154;-89
2022/11/05 05:36:32;;;;;;;30.90;11.53;;;;;;;11.30;67.44;98719.84;6184514;23;20165;-89
2022/11/05 05:38:57;;;;;;;31.47;12.23;;;;;;;11.34;66.98;98727.44;6185235;23;20162;-89
2022/11/05 05:41:23;;;;;;;21.37;10.17;;;;;;;11.41;66.45;98728.75;6159198;23;20242;-88
2022/11/05 05:43:49;;;;;;;22.53;10.07;;;;;;;11.37;65.74;98731.66;6159190;23;20154;-89
2022/11/05 05:46:17;;;;;;;27.13;10.90;;;;;;;11.33;65.25;98751.97;6185242;23;20225;-89
2022/11/05 05:48:47;;;;;;;20.83;9.67;;;;;;;11.32;65.36;98747.66;6158940;23;20214;-88
2022/11/05 05:51:12;;;;;;;21.40;10.23;;;;;;;11.39;65.59;98756.00;6185646;23;20216;-89
2022/11/05 05:53:37;;;;;;;28.80;11.43;;;;;;;11.45;65.59;98753.84;6159554;23;20155;-89
2022/11/05 05:56:04;;;;;;;23.17;11.43;;;;;;;11.49;65.95;98755.34;6183913;23;20213;-89
2022/11/05 05:58:35;;;;;;;24.63;12.53;;;;;;;11.45;66.05;98758.25;6185177;23;20154;-89
2022/11/05 06:01:12;;;;;;;26.50;11.57;;;;;;;11.40;66.63;98757.72;6185100;23;20151;-89
2022/11/05 06:03:37;;;;;;;33.20;12.63;;;;;;;11.47;66.15;98762.47;6159848;23;20154;-89
2022/11/05 06:06:06;;;;;;;33.63;14.83;;;;;;;11.51;65.43;98761.34;6185472;23;20473;-89
2022/11/05 06:08:32;;;;;;;36.77;15.40;;;;;;;11.49;65.10;98778.97;6185974;23;20171;-89
2022/11/05 06:10:58;;;;;;;36.73;14.13;;;;;;;11.61;64.86;98779.97;6183880;23;20150;-89
2022/11/05 06:13:24;;;;;;;29.00;12.60;;;;;;;11.69;65.06;98765.47;6185027;23;20150;-89
2022/11/05 06:15:50;;;;;;;28.33;12.63;;;;;;;11.74;65.01;98766.97;6185092;23;20217;-89
2022/11/05 06:18:15;;;;;;;45.33;14.73;;;;;;;11.76;65.80;98775.59;6183878;23;20154;-89
2022/11/05 06:20:41;;;;;;;34.30;15.07;;;;;;;11.77;66.36;98772.84;6185090;23;20157;-89
2022/11/05 06:23:06;;;;;;;40.57;13.37;;;;;;;11.87;66.39;98781.84;6185040;23;20226;-88
2022/11/05 06:25:32;;;;;;;34.57;14.07;;;;;;;11.92;67.11;98781.56;6185049;23;20161;-88
2022/11/05 06:27:57;;;;;;;34.97;12.53;;;;;;;12.02;67.63;98787.91;6183722;23;20185;-89
2022/11/05 06:30:23;;;;;;;31.40;13.77;;;;;;;12.17;67.18;98792.19;6184925;23;20160;-90
2022/11/05 06:32:49;;;;;;;27.40;13.23;;;;;;;12.31;66.94;98785.09;6185324;23;20631;-88
2022/11/05 06:35:15;;;;;;;37.37;14.37;;;;;;;12.34;66.36;98786.69;6185282;23;20622;-90
2022/11/05 06:37:40;;;;;;;29.70;12.10;;;;;;;12.49;66.27;98793.56;6184972;23;20562;-89
2022/11/05 06:40:06;;;;;;;30.90;12.57;;;;;;;12.57;66.06;98795.69;6185307;23;20583;-90
2022/11/05 06:42:32;;;;;;;41.37;14.03;;;;;;;12.62;66.00;98794.44;6185487;23;20470;-90
2022/11/05 06:44:57;;;;;;;27.37;13.23;;;;;;;12.67;65.28;98800.25;6184947;23;20153;-90
2022/11/05 06:47:22;;;;;;;31.73;13.90;;;;;;;12.76;65.24;98794.34;6184825;23;20263;-90
2022/11/05 06:49:48;;;;;;;31.37;14.07;;;;;;;12.81;65.33;98794.88;6159466;23;20254;-90
2022/11/05 06:52:14;;;;;;;36.13;14.73;;;;;;;13.01;65.29;98790.91;6158867;23;20161;-90
2022/11/05 06:54:41;;;;;;;35.50;15.03;;;;;;;13.30;65.56;98794.22;6185473;23;20236;-90
2022/11/05 06:57:10;;;;;;;39.27;17.23;;;;;;;13.53;65.28;98789.03;6158916;23;20278;-90
2022/11/05 06:59:37;;;;;;;47.10;17.07;;;;;;;13.73;65.15;98781.53;6183696;23;20200;-90
2022/11/05 07:02:03;;;;;;;47.67;17.60;;;;;;;14.03;65.17;98782.81;6184873;23;20173;-90
2022/11/05 07:04:28;;;;;;;41.37;17.10;;;;;;;14.33;63.94;98785.06;6186005;23;20161;-90
2022/11/05 07:06:53;;;;;;;39.80;18.10;;;;;;;14.58;63.09;98786.72;6186566;23;20606;-90
2022/11/05 07:09:19;;;;;;;33.10;17.27;;;;;;;14.61;62.36;98781.22;6186586;23;20225;-90
2022/11/05 07:11:44;;;;;;;43.10;17.60;;;;;;;14.69;62.31;98773.56;6160719;23;20230;-90
2022/11/05 07:14:10;;;;;;;41.13;17.23;;;;;;;14.76;62.40;98772.16;6186856;23;20155;-90
2022/11/05 07:16:35;;;;;;;40.30;16.13;;;;;;;14.63;63.18;98761.69;6185341;23;20188;-90
2022/11/05 07:19:01;;;;;;;34.20;16.03;;;;;;;14.87;63.13;98761.63;6186844;23;20179;-88
2022/11/05 07:21:27;;;;;;;45.50;18.47;;;;;;;14.93;62.34;98774.38;6187714;23;20159;-90
2022/11/05 07:23:52;;;;;;;39.37;16.33;;;;;;;14.83;62.57;98762.84;6186504;23;20153;-90
2022/11/05 07:26:18;;;;;;;44.67;17.73;;;;;;;14.86;63.28;98749.38;6161049;23;20523;-91
2022/11/05 07:28:44;;;;;;;37.30;15.90;;;;;;;14.91;63.09;98749.88;6160826;23;20188;-90
2022/11/05 07:31:09;;;;;;;34.83;16.27;;;;;;;14.92;62.82;98750.72;6186823;23;20649;-90
2022/11/05 07:33:35;;;;;;;42.03;16.23;;;;;;;15.07;62.02;98746.91;6160647;23;20545;-90
2022/11/05 07:36:00;;;;;;;53.27;17.30;;;;;;;14.98;62.21;98751.09;6161409;23;20547;-90
2022/11/05 07:38:25;;;;;;;39.93;18.13;;;;;;;14.92;62.77;98746.28;6160707;23;20184;-91
2022/11/05 07:40:51;;;;;;;35.13;16.63;;;;;;;14.95;63.25;98738.13;6160320;23;20161;-91
2022/11/05 07:43:17;;;;;;;41.53;18.90;;;;;;;15.09;62.47;98743.22;6186650;23;20152;-91
2022/11/05 07:45:44;;;;;;;48.57;19.27;;;;;;;15.28;62.56;98737.31;6160671;23;20588;-91
2022/11/05 07:48:09;;;;;;;39.37;17.87;;;;;;;15.17;62.69;98727.59;6186868;23;20194;-90
2022/11/05 07:50:36;;;;;;;44.27;18.17;;;;;;;15.36;62.03;98724.34;6186561;23;20526;-91
2022/11/05 07:53:08;;;;;;;41.10;19.70;;;;;;;15.60;62.30;98727.75;6160262;23;20158;-91
2022/11/05 07:55:34;;;;;;;50.27;21.17;;;;;;;15.68;61.14;98719.19;6161003;23;20149;-91
2022/11/05 07:58:00;;;;;;;56.17;21.80;;;;;;;15.72;62.03;98718.81;6160161;23;20569;-90
2022/11/05 08:00:27;;;;;;;49.87;21.07;;;;;;;15.92;61.48;98717.25;6161103;23;20211;-90
2022/11/05 08:03:04;;;;;;;45.17;16.60;;;;;;;15.93;61.20;98709.16;6160178;23;20228;-90
2022/11/05 08:05:33;;;;;;;35.33;16.30;;;;;;;15.99;61.68;98716.63;6186489;23;20575;-91
2022/11/05 08:07:59;;;;;;;37.63;16.87;;;;;;;16.21;61.46;98718.34;6159942;23;20182;-91
2022/11/05 08:10:25;;;;;;;34.77;14.80;;;;;;;16.10;61.36;98717.53;6160311;23;20161;-91
2022/11/05 08:12:55;;;;;;;35.37;16.47;;;;;;;16.28;61.40;98718.66;6160260;23;20162;-91
2022/11/05 08:15:21;;;;;;;40.27;17.30;;;;;;;16.27;61.01;98711.72;6160122;23;20162;-91
2022/11/05 08:17:46;;;;;;;37.60;16.33;;;;;;;16.19;61.21;98712.34;6186331;23;20146;-91
2022/11/05 08:20:13;;;;;;;37.27;15.93;;;;;;;16.48;60.84;98716.06;6159899;23;20154;-90
2022/11/05 08:22:43;;;;;;;41.17;16.60;;;;;;;16.72;60.33;98707.91;6159914;23;20162;-90
2022/11/05 08:25:10;;;;;;;43.13;17.03;;;;;;;17.00;59.56;98703.78;6185058;23;20457;-90
2022/11/05 08:27:36;;;;;;;41.70;17.30;;;;;;;17.05;58.29;98706.84;6159732;23;20227;-91
2022/11/05 08:30:03;;;;;;;38.87;16.83;;;;;;;16.81;59.88;98711.59;6160351;23;20491;-90
2022/11/05 08:32:29;;;;;;;39.63;16.10;;;;;;;16.99;59.74;98704.72;6186233;23;20146;-90
2022/11/05 08:34:54;;;;;;;45.37;18.13;;;;;;;17.37;58.70;98707.56;6159739;23;20163;-90
2022/11/05 08:37:19;;;;;;;42.93;18.23;;;;;;;17.59;57.57;98699.44;6160116;23;20154;-90
2022/11/05 08:39:45;;;;;;;44.73;18.33;;;;;;;17.80;56.59;98702.00;6160718;23;20151;-90
2022/11/05 08:42:11;;;;;;;40.23;18.73;;;;;;;17.56;56.65;98697.06;6186086;23;20585;-90
2022/11/05 08:44:36;;;;;;;35.93;17.43;;;;;;;17.75;56.30;98699.78;6160749;23;20338;-90
2022/11/05 08:47:02;;;;;;;43.73;16.13;;;;;;;17.77;55.77;98695.16;6160657;23;20668;-90
2022/11/05 08:49:27;;;;;;;32.97;16.17;;;;;;;18.05;56.59;98695.34;6186265;23;20163;-90
2022/11/05 08:51:53;;;;;;;39.40;15.27;;;;;;;18.17;56.49;98694.25;6160015;23;20150;-91
2022/11/05 08:54:18;;;;;;;32.43;14.97;;;;;;;18.17;56.08;98694.25;6160921;23;20154;-90
2022/11/05 08:56:43;;;;;;;35.87;16.67;;;;;;;18.13;56.07;98692.84;6185598;23;20146;-90
2022/11/05 08:59:09;;;;;;;31.10;12.93;;;;;;;18.35;55.49;98692.56;6185597;23;20151;-90
2022/11/05 09:01:35;;;;;;;32.80;14.03;;;;;;;18.32;55.78;98693.69;6159910;23;20471;-90
2022/11/05 09:04:00;;;;;;;27.77;12.73;;;;;;;18.78;55.73;98692.16;6159509;23;20165;-90
2022/11/05 09:06:26;;;;;;;39.30;13.67;;;;;;;18.76;54.10;98691.47;6159940;23;20154;-90
2022/11/05 09:08:51;;;;;;;30.60;14.13;;;;;;;19.04;54.52;98679.91;6186110;23;20189;-91
2022/11/05 09:11:17;;;;;;;34.13;14.83;;;;;;;19.15;54.16;98682.41;6159761;23;20154;-90
2022/11/05 09:13:42;;;;;;;30.00;14.00;;;;;;;19.27;53.25;98677.72;6160119;23;20534;-90
2022/11/05 09:16:21;;;;;;;31.83;14.77;;;;;;;19.63;52.80;98675.06;6159442;23;20233;-90
2022/11/05 09:18:47;;;;;;;26.57;13.30;;;;;;;19.93;51.66;98668.59;6159793;23;20145;-90
2022/11/05 09:21:13;;;;;;;24.87;12.47;;;;;;;20.06;50.86;98662.88;6159411;23;20234;-90
2022/11/05 09:23:38;;;;;;;24.67;12.30;;;;;;;20.25;50.62;98667.25;6185265;23;20146;-91
2022/11/05 09:26:04;;;;;;;24.13;12.90;;;;;;;20.38;50.50;98646.41;6185115;23;20150;-90
2022/11/05 09:28:31;;;;;;;22.90;11.93;;;;;;;20.71;49.18;98653.66;6159132;23;20198;-91
2022/11/05 09:30:56;;;;;;;25.97;12.10;;;;;;;21.00;49.19;98645.34;6185346;23;20163;-91
2022/11/05 09:33:24;;;;;;;24.03;12.10;;;;;;;21.22;48.22;98643.00;6185331;23;20582;-91
2022/11/05 09:35:50;;;;;;;26.73;12.73;;;;;;;21.12;48.73;98644.94;6159310;23;20231;-91
2022/11/05 09:38:16;;;;;;;24.37;11.60;;;;;;;21.22;49.10;98647.50;6185632;23;20151;-90
2022/11/05 09:40:59;;;;;;;25.57;12.47;;;;;;;21.32;48.13;98649.03;6159206;23;20181;-90
2022/11/05 09:43:42;;;;;;;22.40;11.27;;;;;;;21.52;47.75;98644.28;6185234;23;20153;-90
2022/11/05 09:46:27;;;;;;;15.07;9.20;;;;;;;21.57;47.68;98646.44;6185890;23;20546;-91
2022/11/05 09:49:03;;;;;;;18.87;10.00;;;;;;;21.44;47.81;98637.09;6185060;23;20178;-90
2022/11/05 09:51:29;;;;;;;21.80;10.30;;;;;;;21.84;46.35;98628.38;6185855;23;20131;-91
2022/11/05 09:53:56;;;;;;;20.00;10.00;;;;;;;21.96;45.64;98631.56;6185196;23;20187;-91
2022/11/05 09:56:25;;;;;;;18.53;9.33;;;;;;;21.97;46.84;98630.59;6159293;23;20150;-90
2022/11/05 09:59:01;;;;;;;20.17;9.50;;;;;;;22.28;46.33;98625.44;6159238;23;20161;-90
2022/11/05 10:01:32;;;;;;;20.23;8.83;;;;;;;22.56;45.60;98619.56;6159486;23;20150;-90
2022/11/05 10:04:01;;;;;;;16.73;8.90;;;;;;;22.76;44.99;98627.28;6185519;23;20226;-90
2022/11/05 10:06:27;;;;;;;18.40;8.10;;;;;;;22.73;44.79;98619.59;6159163;23;20154;-90
2022/11/05 10:09:18;;;;;;;15.97;8.53;;;;;;;22.58;45.32;98617.59;6184970;23;20189;-90
2022/11/05 10:11:50;;;;;;;17.00;8.67;;;;;;;22.63;45.92;98615.28;6185735;23;20220;-90
2022/11/05 10:14:27;;;;;;;18.73;9.20;;;;;;;22.60;45.91;98602.22;6185611;23;20139;-90
2022/11/05 10:17:00;;;;;;;15.40;7.93;;;;;;;22.58;46.48;98598.91;6185404;23;20153;-90
2022/11/05 10:19:43;;;;;;;18.17;9.70;;;;;;;22.56;46.77;98597.41;6159165;23;20150;-90
2022/11/05 10:22:15;;;;;;;18.13;9.20;;;;;;;22.86;46.58;98588.66;6185377;23;20138;-89
2022/11/05 10:24:46;;;;;;;20.67;9.00;;;;;;;22.87;46.59;98589.50;6185653;23;20186;-90
2022/11/05 10:27:22;;;;;;;12.97;7.43;;;;;;;22.93;46.35;98584.31;6185921;23;20170;-90
2022/11/05 10:29:49;;;;;;;14.63;8.83;;;;;;;23.10;46.30;98585.94;6158834;23;20210;-90
2022/11/05 10:32:37;;;;;;;14.27;8.63;;;;;;;23.51;45.53;98583.91;6159025;23;20162;-90
2022/11/05 10:35:06;;;;;;;18.97;9.27;;;;;;;23.70;45.79;98572.78;6185088;23;20617;-89
2022/11/05 10:37:33;;;;;;;18.73;7.60;;;;;;;24.11;44.76;98583.25;6159296;23;20151;-90
2022/11/05 10:39:59;;;;;;;19.03;8.43;;;;;;;23.81;45.51;98576.88;6160987;23;20586;-89
2022/11/05 10:43:07;;;;;;;15.23;9.03;;;;;;;24.16;44.50;98570.13;6161181;23;20237;-91
2022/11/05 10:45:54;;;;;;;20.07;9.63;;;;;;;24.24;44.62;98570.88;6171652;23;20158;-90
2022/11/05 10:48:38;;;;;;;16.40;8.73;;;;;;;24.45;43.59;98564.81;6187402;23;20532;-90
2022/11/05 10:51:06;;;;;;;17.63;8.27;;;;;;;24.61;43.65;98558.47;6160802;23;20162;-90
2022/11/05 10:53:35;;;;;;;13.73;7.77;;;;;;;25.07;43.12;98556.50;6186717;23;20516;-90
2022/11/05 10:56:01;;;;;;;19.30;8.23;;;;;;;25.47;42.31;98556.00;6186757;23;20150;-90
2022/11/05 10:58:29;;;;;;;15.13;8.20;;;;;;;25.75;42.02;98556.94;6186688;23;20211;-91
2022/11/05 11:00:54;;;;;;;14.03;7.93;;;;;;;25.56;42.45;98553.00;6160734;23;20158;-91
2022/11/05 11:03:31;;;;;;;14.30;7.40;;;;;;;26.01;41.56;98543.78;6186649;23;20151;-91
2022/11/05 11:06:14;;;;;;;14.43;7.77;;;;;;;25.79;41.02;98546.63;6185552;23;20164;-91
2022/11/05 11:08:44;;;;;;;15.43;7.93;;;;;;;25.82;41.24;98544.41;6186918;23;20167;-91
2022/11/05 11:11:23;;;;;;;15.27;7.55;;;;;;;26.06;40.96;98532.44;6160704;23;20221;-91
2022/11/05 11:13:50;;;;;;;21.08;7.20;;;;;;;26.28;40.80;98530.59;6186932;23;20214;-91
2022/11/05 11:16:21;;;;;;;15.30;7.75;;;;;;;26.54;39.48;98525.41;6186855;23;20164;-90
2022/11/05 11:18:52;;;;;;;16.98;6.88;;;;;;;26.39;39.57;98528.19;6186602;23;20143;-90
2022/11/05 11:21:21;;;;;;;13.15;7.35;;;;;;;26.37;39.16;98527.56;6186893;23;20130;-91
2022/11/05 11:24:01;;;;;;;14.25;7.70;;;;;;;26.52;39.10;98516.72;6186848;23;20197;-88
2022/11/05 11:26:36;;;;;;;15.85;7.60;;;;;;;26.94;39.11;98518.44;6186753;23;20131;-89
2022/11/05 11:29:07;;;;;;;24.60;10.90;;;;;;;26.90;39.28;98520.69;6160212;23;20644;-89
2022/11/05 11:31:37;;;;;;;26.17;9.80;;;;;;;26.88;39.62;98512.00;6186401;23;20146;-89
2022/11/05 11:34:05;;;;;;;15.55;8.80;;;;;;;26.94;39.33;98508.50;6160378;23;20585;-88
2022/11/05 11:36:35;;;;;;;20.70;9.27;;;;;;;27.17;39.06;98506.34;6160343;23;20158;-89
2022/11/05 11:39:05;;;;;;;16.55;9.27;;;;;;;27.17;38.93;98500.13;6160368;23;20150;-88
2022/11/05 11:41:37;;;;;;;13.80;8.52;;;;;;;27.26;38.79;98499.75;6186670;23;20166;-90
2022/11/05 11:44:13;;;;;;;21.55;10.02;;;;;;;27.26;38.84;98497.06;6186740;23;20141;-91
2022/11/05 11:46:39;;;;;;;17.42;8.63;;;;;;;27.34;38.10;98488.78;6161331;23;20146;-90
2022/11/05 11:49:06;;;;;;;20.08;11.60;;;;;;;27.32;37.73;98490.88;6159850;23;20529;-90
2022/11/05 11:51:39;;;;;;;32.72;17.85;;;;;;;27.04;38.01;98492.00;6186329;23;20150;-91
2022/11/05 11:54:16;;;;;;;22.05;12.27;;;;;;;27.16;36.98;98488.53;6186228;23;20177;-91
2022/11/05 11:56:46;;;;;;;14.80;7.93;;;;;;;27.10;37.39;98499.25;6160268;23;20149;-91
2022/11/05 11:59:21;;;;;;;11.02;5.78;;;;;;;27.12;32.58;98487.25;6160829;23;20150;-90
2022/11/05 12:01:52;;;;;;;5.75;2.67;;;;;;;27.06;29.41;98479.19;6186270;23;20550;-88
2022/11/05 12:04:41;;;;;;;5.70;2.25;;;;;;;27.38;28.57;98468.50;6160273;23;20193;-91
2022/11/05 12:07:29;;;;;;;5.68;2.15;;;;;;;27.43;27.77;98468.78;6160100;23;20205;-91
2022/11/05 12:10:39;;;;;;;8.80;3.17;;;;;;;27.20;28.50;98472.81;6186542;23;20135;-96